Time;durP1;ratioP1;P1;durP2;ratioP2;P2;SDS_P1;SDS_P2;PMS_P1;PMS_P2;Temp;Humidity;BMP_temperature;BMP_pressure;BME280_temperature;BME280_humidity;BME280_pressure;Samples;Min_cycle;Max_cycle;Signal;HPM_P1;HPM_P2
2022/04/08 00:01:27;;;;;;;3.00;1.53;;;;;;;;;;5094912;28;20547;-75
2022/04/08 00:03:54;;;;;;;5.40;2.40;;;;;;;;;;5094525;28;20493;-75
2022/04/08 00:06:22;;;;;;;1.83;1.43;;;;;;;;;;5094981;28;20451;-76
2022/04/08 00:08:49;;;;;;;3.57;1.33;;;;;;;;;;5094583;28;20842;-76
2022/04/08 00:11:16;;;;;;;1.93;1.30;;;;;;;;;;5094558;28;20820;-76
2022/04/08 00:13:45;;;;;;;3.00;1.40;;;;;;;;;;5094593;28;20473;-73
2022/04/08 00:16:12;;;;;;;2.90;1.50;;;;;;;;;;5094533;28;20947;-75
2022/04/08 00:18:40;;;;;;;2.17;1.37;;;;;;;;;;5094631;28;20462;-75
2022/04/08 00:21:07;;;;;;;4.37;1.27;;;;;;;;;;5094632;28;20501;-75
2022/04/08 00:23:34;;;;;;;3.10;1.20;;;;;;;;;;5094206;28;20467;-74
2022/04/08 00:26:01;;;;;;;4.10;1.50;;;;;;;;;;5094274;28;20447;-74
2022/04/08 00:28:28;;;;;;;3.30;1.37;;;;;;;;;;5094367;28;21009;-75
2022/04/08 00:30:57;;;;;;;3.20;1.57;;;;;;;;;;5094373;28;20451;-74
2022/04/08 00:33:24;;;;;;;7.60;1.87;;;;;;;;;;5094130;28;20455;-75
2022/04/08 00:35:51;;;;;;;4.90;1.50;;;;;;;;;;5094055;28;20537;-75
2022/04/08 00:38:18;;;;;;;2.20;1.80;;;;;;;;;;5094248;28;21041;-75
2022/04/08 00:40:45;;;;;;;1.97;1.53;;;;;;;;;;5094450;28;20465;-76
2022/04/08 00:43:14;;;;;;;8.27;4.03;;;;;;;;;;5093946;28;20493;-76
2022/04/08 00:45:41;;;;;;;8.37;2.00;;;;;;;;;;5093793;28;20454;-76
2022/04/08 00:48:09;;;;;;;12.10;2.07;;;;;;;;;;5093816;28;20474;-75
2022/04/08 00:50:37;;;;;;;4.17;1.70;;;;;;;;;;5094078;28;20940;-75
2022/04/08 00:53:04;;;;;;;4.47;2.63;;;;;;;;;;5093355;28;20446;-75
2022/04/08 00:55:31;;;;;;;3.43;1.60;;;;;;;;;;5093706;28;20461;-75
2022/04/08 00:58:02;;;;;;;9.70;2.30;;;;;;;;;;5093724;28;20483;-75
2022/04/08 01:00:29;;;;;;;6.90;1.90;;;;;;;;;;5093287;28;20454;-76
2022/04/08 01:02:56;;;;;;;8.27;2.10;;;;;;;;;;5093657;28;20498;-75
2022/04/08 01:05:25;;;;;;;8.30;2.23;;;;;;;;;;5093494;28;20450;-75
2022/04/08 01:07:54;;;;;;;11.67;2.20;;;;;;;;;;5093481;28;20991;-75
2022/04/08 01:10:21;;;;;;;6.53;1.93;;;;;;;;;;5093631;28;20458;-76
2022/04/08 01:12:49;;;;;;;4.47;2.10;;;;;;;;;;5093694;28;20946;-76
2022/04/08 01:15:17;;;;;;;4.77;2.20;;;;;;;;;;5093313;28;20454;-75
2022/04/08 01:17:44;;;;;;;4.77;2.13;;;;;;;;;;5093576;28;20801;-76
2022/04/08 01:20:11;;;;;;;12.13;3.23;;;;;;;;;;5093454;28;20462;-75
2022/04/08 01:22:40;;;;;;;5.50;2.83;;;;;;;;;;5093484;28;21002;-76
2022/04/08 01:25:10;;;;;;;4.70;2.63;;;;;;;;;;5093255;28;20458;-76
2022/04/08 01:27:37;;;;;;;8.47;2.43;;;;;;;;;;5093386;28;20874;-75
2022/04/08 01:30:05;;;;;;;4.23;2.53;;;;;;;;;;5093390;28;20458;-76
2022/04/08 01:32:33;;;;;;;5.77;2.60;;;;;;;;;;5093445;28;20469;-75
2022/04/08 01:35:00;;;;;;;4.53;2.33;;;;;;;;;;5093216;28;20481;-75
2022/04/08 01:37:27;;;;;;;6.67;2.27;;;;;;;;;;5093418;28;20932;-75
2022/04/08 01:39:55;;;;;;;3.37;2.27;;;;;;;;;;5093214;28;20470;-75
2022/04/08 01:42:24;;;;;;;8.73;2.33;;;;;;;;;;5093180;28;20482;-75
2022/04/08 01:44:52;;;;;;;10.10;2.50;;;;;;;;;;5093170;28;20557;-75
2022/04/08 01:47:19;;;;;;;4.97;2.20;;;;;;;;;;5093406;28;20486;-75
2022/04/08 01:49:46;;;;;;;4.80;2.73;;;;;;;;;;5093016;28;20539;-75
2022/04/08 01:52:13;;;;;;;4.03;2.27;;;;;;;;;;5093076;28;20830;-75
2022/04/08 01:54:41;;;;;;;4.77;2.70;;;;;;;;;;5092335;28;20451;-75
2022/04/08 01:57:08;;;;;;;8.27;2.60;;;;;;;;;;5093028;28;20453;-75
2022/04/08 01:59:36;;;;;;;7.43;2.53;;;;;;;;;;5092820;28;20471;-75
2022/04/08 02:02:05;;;;;;;7.57;2.43;;;;;;;;;;5092795;28;20490;-75
2022/04/08 02:04:32;;;;;;;6.63;2.80;;;;;;;;;;5092656;28;20955;-75
2022/04/08 02:07:02;;;;;;;4.60;2.47;;;;;;;;;;5092877;28;20963;-75
2022/04/08 02:09:29;;;;;;;6.80;2.93;;;;;;;;;;5093160;28;20471;-76
2022/04/08 02:11:56;;;;;;;5.00;2.70;;;;;;;;;;5095617;28;20553;-74
2022/04/08 02:14:23;;;;;;;3.80;2.53;;;;;;;;;;5096469;28;20508;-75
2022/04/08 02:16:51;;;;;;;6.03;2.23;;;;;;;;;;5096896;28;20454;-76
2022/04/08 02:19:19;;;;;;;3.93;2.10;;;;;;;;;;5096604;28;20467;-76
2022/04/08 02:21:48;;;;;;;8.83;2.43;;;;;;;;;;5096635;28;20597;-76
2022/04/08 02:24:15;;;;;;;4.90;2.73;;;;;;;;;;5096405;28;20458;-75
2022/04/08 02:26:42;;;;;;;8.93;2.90;;;;;;;;;;5096723;28;20817;-76
2022/04/08 02:29:10;;;;;;;9.23;3.00;;;;;;;;;;5096303;28;20478;-75
2022/04/08 02:31:37;;;;;;;7.90;2.70;;;;;;;;;;5096455;28;20455;-75
2022/04/08 02:34:05;;;;;;;4.50;2.43;;;;;;;;;;5096265;28;20454;-75
2022/04/08 02:36:32;;;;;;;5.73;2.40;;;;;;;;;;5096486;28;20461;-75
2022/04/08 02:38:59;;;;;;;5.97;2.47;;;;;;;;;;5096117;28;20475;-75
2022/04/08 02:41:26;;;;;;;13.13;3.23;;;;;;;;;;5096473;28;20447;-75
2022/04/08 02:43:54;;;;;;;3.10;2.03;;;;;;;;;;5096022;28;20457;-75
2022/04/08 02:46:21;;;;;;;7.63;2.60;;;;;;;;;;5096418;28;20446;-76
2022/04/08 02:48:48;;;;;;;7.70;2.17;;;;;;;;;;5096222;28;20977;-76
2022/04/08 02:51:16;;;;;;;8.60;2.80;;;;;;;;;;5095901;28;20455;-76
2022/04/08 02:53:43;;;;;;;12.80;2.67;;;;;;;;;;5095302;28;20447;-73
2022/04/08 02:56:10;;;;;;;7.03;2.37;;;;;;;;;;5095814;28;20447;-76
2022/04/08 02:58:37;;;;;;;15.33;3.43;;;;;;;;;;5096087;28;21001;-75
2022/04/08 03:01:04;;;;;;;9.00;2.70;;;;;;;;;;5096017;28;20822;-75
2022/04/08 03:03:32;;;;;;;3.10;2.20;;;;;;;;;;5095737;28;20482;-75
2022/04/08 03:06:02;;;;;;;7.20;2.10;;;;;;;;;;5095735;28;20486;-75
2022/04/08 03:08:31;;;;;;;8.33;2.80;;;;;;;;;;5095726;28;20477;-75
2022/04/08 03:10:58;;;;;;;23.00;6.57;;;;;;;;;;5095831;28;20454;-75
2022/04/08 03:13:25;;;;;;;8.63;2.83;;;;;;;;;;5095869;28;20450;-74
2022/04/08 03:15:52;;;;;;;6.00;1.97;;;;;;;;;;5095671;28;20446;-76
2022/04/08 03:18:20;;;;;;;5.43;2.30;;;;;;;;;;5095783;28;20520;-76
2022/04/08 03:20:47;;;;;;;7.07;2.20;;;;;;;;;;5095435;28;20446;-75
2022/04/08 03:23:14;;;;;;;5.73;2.60;;;;;;;;;;5094701;28;20493;-76
2022/04/08 03:25:42;;;;;;;3.70;2.33;;;;;;;;;;5095280;28;20975;-76
2022/04/08 03:28:10;;;;;;;11.23;2.43;;;;;;;;;;5095443;28;21005;-75
2022/04/08 03:30:37;;;;;;;8.60;2.00;;;;;;;;;;5095694;28;20902;-75
2022/04/08 03:33:04;;;;;;;5.30;1.97;;;;;;;;;;5095282;28;20451;-74
2022/04/08 03:35:31;;;;;;;5.30;1.77;;;;;;;;;;5095228;28;20451;-75
2022/04/08 03:37:58;;;;;;;10.63;2.00;;;;;;;;;;5095188;28;20931;-74
2022/04/08 03:40:26;;;;;;;4.87;2.30;;;;;;;;;;5095755;28;20453;-75
2022/04/08 03:42:54;;;;;;;3.47;2.27;;;;;;;;;;5095190;28;21010;-74
2022/04/08 03:45:21;;;;;;;7.83;2.57;;;;;;;;;;5095050;28;20454;-74
2022/04/08 03:47:49;;;;;;;2.73;1.60;;;;;;;;;;5095053;28;20458;-75
2022/04/08 03:50:16;;;;;;;5.33;2.17;;;;;;;;;;5094940;28;20458;-75
2022/04/08 03:52:43;;;;;;;3.20;1.97;;;;;;;;;;5094486;28;20508;-74
2022/04/08 03:55:10;;;;;;;9.60;2.17;;;;;;;;;;5094742;28;20512;-74
2022/04/08 03:57:38;;;;;;;4.60;2.37;;;;;;;;;;5095099;28;20447;-74
2022/04/08 04:00:08;;;;;;;4.80;1.90;;;;;;;;;;5094990;28;20462;-74
2022/04/08 04:02:35;;;;;;;2.00;1.50;;;;;;;;;;5094885;28;20535;-75
2022/04/08 04:05:02;;;;;;;3.13;1.60;;;;;;;;;;5094850;28;20451;-76
2022/04/08 04:07:30;;;;;;;4.17;2.27;;;;;;;;;;5094844;28;20447;-75
2022/04/08 04:09:58;;;;;;;7.53;2.67;;;;;;;;;;5094687;28;20470;-75
2022/04/08 04:12:26;;;;;;;6.07;2.20;;;;;;;;;;5094713;28;20800;-76
2022/04/08 04:14:54;;;;;;;4.17;1.83;;;;;;;;;;5094520;28;20940;-74
2022/04/08 04:17:22;;;;;;;11.53;2.30;;;;;;;;;;5094720;28;20939;-76
2022/04/08 04:19:50;;;;;;;4.57;2.00;;;;;;;;;;5094492;28;20486;-75
2022/04/08 04:22:17;;;;;;;5.67;2.37;;;;;;;;;;5094356;28;20466;-76
2022/04/08 04:24:44;;;;;;;9.10;3.93;;;;;;;;;;5094304;28;20959;-75
2022/04/08 04:27:11;;;;;;;7.83;1.83;;;;;;;;;;5094601;28;20450;-75
2022/04/08 04:29:38;;;;;;;4.10;1.70;;;;;;;;;;5094562;28;20486;-75
2022/04/08 04:32:06;;;;;;;2.27;1.80;;;;;;;;;;5094381;28;20458;-75
2022/04/08 04:34:36;;;;;;;3.70;1.60;;;;;;;;;;5094100;28;20451;-74
2022/04/08 04:37:04;;;;;;;4.03;2.13;;;;;;;;;;5094197;28;20842;-75
2022/04/08 04:39:31;;;;;;;6.30;2.37;;;;;;;;;;5094141;28;20887;-75
2022/04/08 04:41:58;;;;;;;3.80;2.00;;;;;;;;;;5094045;28;20820;-75
2022/04/08 04:44:27;;;;;;;3.03;1.87;;;;;;;;;;5093691;28;20904;-75
2022/04/08 04:46:54;;;;;;;2.37;1.67;;;;;;;;;;5093973;28;20994;-75
2022/04/08 04:49:21;;;;;;;12.23;2.83;;;;;;;;;;5094220;28;20462;-75
2022/04/08 04:51:51;;;;;;;14.87;2.57;;;;;;;;;;5093815;28;20489;-74
2022/04/08 04:54:18;;;;;;;5.67;1.80;;;;;;;;;;5093092;28;20508;-75
2022/04/08 04:56:45;;;;;;;5.17;1.70;;;;;;;;;;5093899;28;20451;-74
2022/04/08 04:59:12;;;;;;;3.70;1.70;;;;;;;;;;5093708;28;20473;-75
2022/04/08 05:01:39;;;;;;;5.27;2.00;;;;;;;;;;5093871;28;20458;-75
2022/04/08 05:04:07;;;;;;;3.53;1.83;;;;;;;;;;5093490;28;20856;-75
2022/04/08 05:06:34;;;;;;;11.37;2.10;;;;;;;;;;5093745;28;20457;-75
2022/04/08 05:09:04;;;;;;;7.90;2.90;;;;;;;;;;5093613;28;20474;-74
2022/04/08 05:11:31;;;;;;;5.97;4.60;;;;;;;;;;5093516;28;20458;-75
2022/04/08 05:13:59;;;;;;;4.37;2.43;;;;;;;;;;5093428;28;20451;-75
2022/04/08 05:16:26;;;;;;;9.60;3.03;;;;;;;;;;5093524;28;20450;-75
2022/04/08 05:18:53;;;;;;;4.93;2.83;;;;;;;;;;5093601;28;20475;-75
2022/04/08 05:21:20;;;;;;;5.27;2.30;;;;;;;;;;5093415;28;20936;-75
2022/04/08 05:23:47;;;;;;;9.90;3.53;;;;;;;;;;5092812;28;20859;-74
2022/04/08 05:26:16;;;;;;;9.07;4.47;;;;;;;;;;5093595;28;20467;-74
2022/04/08 05:28:43;;;;;;;5.63;2.83;;;;;;;;;;5093306;28;20979;-75
2022/04/08 05:31:10;;;;;;;5.17;2.57;;;;;;;;;;5093366;28;20459;-74
2022/04/08 05:33:37;;;;;;;7.00;3.13;;;;;;;;;;5093113;28;20447;-74
2022/04/08 05:36:04;;;;;;;11.77;5.90;;;;;;;;;;5093067;28;20447;-75
2022/04/08 05:38:32;;;;;;;5.77;3.20;;;;;;;;;;5093174;28;20478;-74
2022/04/08 05:40:59;;;;;;;9.87;2.50;;;;;;;;;;5093053;28;20458;-74
2022/04/08 05:43:27;;;;;;;7.57;2.40;;;;;;;;;;5093083;28;20885;-75
2022/04/08 05:45:54;;;;;;;10.60;3.50;;;;;;;;;;5095826;28;20821;-75
2022/04/08 05:48:21;;;;;;;4.50;2.93;;;;;;;;;;5099976;28;20595;-75
2022/04/08 05:50:48;;;;;;;2.93;2.63;;;;;;;;;;5099955;28;20461;-74
2022/04/08 05:53:16;;;;;;;4.50;2.73;;;;;;;;;;5099997;28;20457;-74
2022/04/08 05:55:43;;;;;;;8.20;3.13;;;;;;;;;;5099667;28;20451;-74
2022/04/08 05:58:10;;;;;;;10.03;2.80;;;;;;;;;;5099728;28;21014;-75
2022/04/08 06:00:38;;;;;;;9.23;3.53;;;;;;;;;;5099816;28;20457;-75
2022/04/08 06:03:05;;;;;;;12.33;2.90;;;;;;;;;;5099664;28;20518;-74
2022/04/08 06:05:32;;;;;;;11.73;5.57;;;;;;;;;;5099725;28;20451;-74
2022/04/08 06:08:01;;;;;;;13.20;4.63;;;;;;;;;;5099544;28;20466;-74
2022/04/08 06:10:28;;;;;;;10.13;5.33;;;;;;;;;;5100037;28;20458;-75
2022/04/08 06:12:56;;;;;;;12.53;7.50;;;;;;;;;;5099881;28;20445;-75
2022/04/08 06:15:23;;;;;;;13.67;2.93;;;;;;;;;;5099687;28;20455;-75
2022/04/08 06:17:52;;;;;;;11.87;3.77;;;;;;;;;;5099362;28;20458;-74
2022/04/08 06:20:20;;;;;;;10.20;3.03;;;;;;;;;;5099942;28;20454;-75
2022/04/08 06:22:48;;;;;;;3.63;2.27;;;;;;;;;;5099627;28;20964;-75
2022/04/08 06:25:16;;;;;;;3.13;2.23;;;;;;;;;;5099377;28;20514;-74
2022/04/08 06:27:44;;;;;;;9.50;2.47;;;;;;;;;;5098871;28;20446;-74
2022/04/08 06:30:14;;;;;;;5.17;2.20;;;;;;;;;;5099533;28;20908;-74
2022/04/08 06:32:42;;;;;;;4.40;2.90;;;;;;;;;;5099602;28;20497;-74
2022/04/08 06:35:11;;;;;;;9.97;2.73;;;;;;;;;;5099275;28;20454;-74
2022/04/08 06:37:38;;;;;;;3.03;1.93;;;;;;;;;;5099593;28;20503;-74
2022/04/08 06:40:05;;;;;;;7.17;2.37;;;;;;;;;;5099381;28;20449;-74
2022/04/08 06:42:33;;;;;;;3.23;1.63;;;;;;;;;;5099461;28;20462;-74
2022/04/08 06:45:00;;;;;;;3.13;1.70;;;;;;;;;;5098900;28;20494;-74
2022/04/08 06:47:27;;;;;;;3.10;2.07;;;;;;;;;;5099554;28;20463;-74
2022/04/08 06:49:54;;;;;;;4.70;2.10;;;;;;;;;;5099287;28;20470;-74
2022/04/08 06:52:22;;;;;;;5.47;1.60;;;;;;;;;;5099769;28;20447;-74
2022/04/08 06:54:50;;;;;;;3.83;1.90;;;;;;;;;;5098567;28;20817;-74
2022/04/08 06:57:17;;;;;;;3.20;1.90;;;;;;;;;;5096686;28;20451;-73
2022/04/08 06:59:44;;;;;;;2.90;1.67;;;;;;;;;;5096080;28;20474;-73
2022/04/08 07:02:11;;;;;;;4.97;2.00;;;;;;;;;;5096144;28;20462;-74
2022/04/08 07:04:39;;;;;;;15.23;2.33;;;;;;;;;;5095747;28;21011;-74
2022/04/08 07:07:06;;;;;;;9.93;2.30;;;;;;;;;;5095902;28;20473;-74
2022/04/08 07:09:35;;;;;;;2.90;1.90;;;;;;;;;;5095802;28;20466;-74
2022/04/08 07:12:02;;;;;;;9.00;2.00;;;;;;;;;;5095835;28;20442;-74
2022/04/08 07:14:29;;;;;;;5.40;2.60;;;;;;;;;;5095613;28;20970;-74
2022/04/08 07:16:57;;;;;;;2.83;1.70;;;;;;;;;;5095599;28;20442;-74
2022/04/08 07:19:24;;;;;;;6.43;2.93;;;;;;;;;;5095605;28;20467;-74
2022/04/08 07:21:51;;;;;;;7.23;2.40;;;;;;;;;;5095418;28;20837;-73
2022/04/08 07:24:18;;;;;;;5.33;1.87;;;;;;;;;;5095420;28;20482;-74
2022/04/08 07:26:47;;;;;;;2.27;1.40;;;;;;;;;;5089650;28;20520;-73
2022/04/08 07:29:14;;;;;;;7.60;1.80;;;;;;;;;;5093793;28;20477;-74
2022/04/08 07:31:41;;;;;;;3.20;1.87;;;;;;;;;;5093676;28;20495;-73
2022/04/08 07:34:08;;;;;;;4.13;1.83;;;;;;;;;;5093467;28;20455;-74
2022/04/08 07:36:35;;;;;;;5.40;2.10;;;;;;;;;;5094087;28;20846;-73
2022/04/08 07:39:02;;;;;;;5.10;1.70;;;;;;;;;;5093577;28;20905;-73
2022/04/08 07:41:29;;;;;;;5.07;3.07;;;;;;;;;;5093676;28;20458;-74
2022/04/08 07:43:58;;;;;;;5.83;3.20;;;;;;;;;;5093635;28;20832;-73
2022/04/08 07:46:25;;;;;;;8.70;5.37;;;;;;;;;;5093806;28;20879;-74
2022/04/08 07:48:52;;;;;;;5.87;3.50;;;;;;;;;;5093202;28;20474;-74
2022/04/08 07:51:19;;;;;;;4.13;2.20;;;;;;;;;;5093495;28;20447;-74
2022/04/08 07:53:47;;;;;;;8.40;2.90;;;;;;;;;;5093327;28;20982;-74
2022/04/08 07:56:14;;;;;;;5.33;2.57;;;;;;;;;;5093383;28;20477;-74
2022/04/08 07:58:41;;;;;;;6.60;2.20;;;;;;;;;;5093579;28;20881;-74
2022/04/08 08:01:09;;;;;;;8.93;2.57;;;;;;;;;;5093440;28;20454;-75
2022/04/08 08:03:36;;;;;;;9.00;2.43;;;;;;;;;;5093073;28;20482;-75
2022/04/08 08:06:04;;;;;;;3.63;2.40;;;;;;;;;;5093329;28;20542;-75
2022/04/08 08:08:31;;;;;;;3.80;2.20;;;;;;;;;;5093059;28;20486;-74
2022/04/08 08:10:59;;;;;;;6.70;2.50;;;;;;;;;;5093106;28;20457;-75
2022/04/08 08:13:26;;;;;;;7.93;2.90;;;;;;;;;;5093468;28;20940;-75
2022/04/08 08:15:54;;;;;;;7.00;2.60;;;;;;;;;;5093185;28;20462;-75
2022/04/08 08:18:24;;;;;;;4.40;2.37;;;;;;;;;;5092900;28;20535;-75
2022/04/08 08:20:51;;;;;;;8.93;4.23;;;;;;;;;;5093125;28;20477;-74
2022/04/08 08:23:18;;;;;;;3.70;2.93;;;;;;;;;;5092864;28;20686;-75
2022/04/08 08:25:46;;;;;;;4.50;2.43;;;;;;;;;;5092548;28;20450;-75
2022/04/08 08:28:14;;;;;;;5.13;1.93;;;;;;;;;;5092807;28;20471;-74
2022/04/08 08:30:44;;;;;;;4.83;2.40;;;;;;;;;;5093422;28;20450;-75
2022/04/08 08:33:11;;;;;;;3.90;2.20;;;;;;;;;;5092394;28;20605;-75
2022/04/08 08:35:39;;;;;;;11.40;2.83;;;;;;;;;;5092885;28;20446;-75
2022/04/08 08:38:07;;;;;;;11.23;2.63;;;;;;;;;;5092514;28;20471;-75
2022/04/08 08:40:35;;;;;;;6.60;1.90;;;;;;;;;;5092614;28;20450;-75
2022/04/08 08:43:02;;;;;;;3.50;1.90;;;;;;;;;;5092696;28;20450;-74
2022/04/08 08:45:32;;;;;;;4.13;1.90;;;;;;;;;;5092676;28;20487;-75
2022/04/08 08:48:00;;;;;;;5.37;2.03;;;;;;;;;;5092307;28;20489;-75
2022/04/08 08:50:28;;;;;;;3.77;1.70;;;;;;;;;;5092550;28;20462;-74
2022/04/08 08:52:57;;;;;;;4.10;2.33;;;;;;;;;;5091959;28;20454;-74
2022/04/08 08:55:24;;;;;;;13.50;2.97;;;;;;;;;;5092264;28;20462;-74
2022/04/08 08:57:52;;;;;;;3.77;2.40;;;;;;;;;;5092226;28;20473;-75
2022/04/08 09:00:20;;;;;;;6.20;2.67;;;;;;;;;;5092509;28;20545;-74
2022/04/08 09:02:48;;;;;;;4.20;2.50;;;;;;;;;;5092061;28;20454;-75
2022/04/08 09:05:16;;;;;;;5.97;2.13;;;;;;;;;;5092364;28;21041;-74
2022/04/08 09:07:43;;;;;;;4.33;1.50;;;;;;;;;;5092268;28;20466;-75
2022/04/08 09:10:12;;;;;;;8.97;2.57;;;;;;;;;;5092013;28;20465;-74
2022/04/08 09:12:39;;;;;;;6.30;2.47;;;;;;;;;;5092203;28;20455;-74
2022/04/08 09:15:09;;;;;;;5.03;2.50;;;;;;;;;;5091974;28;20447;-74
2022/04/08 09:17:36;;;;;;;6.70;2.27;;;;;;;;;;5091982;28;20477;-74
2022/04/08 09:20:05;;;;;;;4.47;2.00;;;;;;;;;;5091576;28;20940;-75
2022/04/08 09:22:33;;;;;;;7.90;2.70;;;;;;;;;;5092302;28;20561;-75
2022/04/08 09:25:09;;;;;;;3.73;1.87;;;;;;;;;;5091449;28;20490;-74
2022/04/08 09:27:38;;;;;;;3.60;2.07;;;;;;;;;;5092035;28;20913;-75
2022/04/08 09:30:07;;;;;;;4.77;2.07;;;;;;;;;;5092343;28;20455;-74
2022/04/08 09:32:35;;;;;;;2.83;1.90;;;;;;;;;;5091825;28;20458;-74
2022/04/08 09:35:02;;;;;;;4.03;1.97;;;;;;;;;;5091777;28;20466;-74
2022/04/08 09:37:29;;;;;;;2.10;1.70;;;;;;;;;;5091852;28;20967;-75
2022/04/08 09:39:57;;;;;;;3.07;1.80;;;;;;;;;;5091793;28;21019;-74
2022/04/08 09:42:24;;;;;;;4.67;2.03;;;;;;;;;;5092128;28;20478;-75
2022/04/08 09:44:53;;;;;;;2.70;2.07;;;;;;;;;;5091805;28;20496;-75
2022/04/08 09:47:20;;;;;;;2.40;1.87;;;;;;;;;;5092053;28;20446;-74
2022/04/08 09:49:47;;;;;;;10.10;2.67;;;;;;;;;;5091661;28;20983;-74
2022/04/08 09:52:16;;;;;;;4.33;1.97;;;;;;;;;;5091904;28;20454;-75
2022/04/08 09:54:45;;;;;;;4.33;2.63;;;;;;;;;;5091075;28;20496;-75
2022/04/08 09:57:17;;;;;;;3.53;2.23;;;;;;;;;;5091350;28;20508;-74
2022/04/08 09:59:46;;;;;;;4.13;1.70;;;;;;;;;;5091735;28;20553;-75
2022/04/08 10:02:16;;;;;;;4.57;2.47;;;;;;;;;;5091488;28;20512;-75
2022/04/08 10:04:43;;;;;;;3.97;2.10;;;;;;;;;;5091416;28;20490;-75
2022/04/08 10:07:11;;;;;;;3.50;1.93;;;;;;;;;;5091640;28;20455;-75
2022/04/08 10:09:43;;;;;;;3.70;1.93;;;;;;;;;;5091581;28;20815;-75
2022/04/08 10:12:14;;;;;;;11.83;1.97;;;;;;;;;;5091574;28;20493;-75
2022/04/08 10:14:43;;;;;;;4.70;1.43;;;;;;;;;;5091111;28;20794;-75
2022/04/08 10:17:11;;;;;;;2.93;1.70;;;;;;;;;;5092612;28;20825;-75
2022/04/08 10:19:39;;;;;;;3.80;1.60;;;;;;;;;;5092641;28;20519;-75
2022/04/08 10:22:16;;;;;;;3.90;1.70;;;;;;;;;;5092719;28;20462;-74
2022/04/08 10:24:52;;;;;;;3.57;1.63;;;;;;;;;;5092719;28;20531;-74
2022/04/08 10:27:28;;;;;;;2.10;1.60;;;;;;;;;;5093145;28;20450;-74
2022/04/08 10:29:55;;;;;;;3.00;2.30;;;;;;;;;;5092575;28;20474;-74
2022/04/08 10:32:22;;;;;;;2.97;1.60;;;;;;;;;;5094613;28;20458;-75
2022/04/08 10:34:51;;;;;;;4.47;2.63;;;;;;;;;;5096372;28;20450;-74
2022/04/08 10:37:20;;;;;;;6.50;3.83;;;;;;;;;;5096528;28;20450;-74
2022/04/08 10:39:56;;;;;;;2.73;2.10;;;;;;;;;;5096477;28;20477;-75
2022/04/08 10:42:24;;;;;;;11.50;3.87;;;;;;;;;;5096583;28;20454;-74
2022/04/08 10:44:51;;;;;;;10.00;5.30;;;;;;;;;;5096002;28;20490;-75
2022/04/08 10:47:20;;;;;;;3.27;2.17;;;;;;;;;;5096472;28;20936;-74
2022/04/08 10:49:49;;;;;;;4.23;1.70;;;;;;;;;;5096136;28;20476;-75
2022/04/08 10:52:18;;;;;;;3.40;1.73;;;;;;;;;;5096158;28;20523;-75
2022/04/08 10:54:46;;;;;;;3.63;1.40;;;;;;;;;;5095648;28;20923;-74
2022/04/08 10:57:13;;;;;;;2.47;2.07;;;;;;;;;;5093498;28;20454;-74
2022/04/08 10:59:40;;;;;;;3.57;1.60;;;;;;;;;;5095522;28;20853;-75
2022/04/08 11:02:11;;;;;;;4.37;2.23;;;;;;;;;;5095566;28;20459;-75
2022/04/08 11:04:38;;;;;;;6.13;2.70;;;;;;;;;;5095855;28;20486;-75
2022/04/08 11:07:06;;;;;;;4.47;2.30;;;;;;;;;;5095772;28;20457;-75
2022/04/08 11:09:35;;;;;;;4.17;2.10;;;;;;;;;;5095843;28;20475;-75
2022/04/08 11:12:02;;;;;;;2.70;1.80;;;;;;;;;;5095691;28;20512;-75
2022/04/08 11:14:30;;;;;;;6.67;3.13;;;;;;;;;;5088345;28;20504;-75
2022/04/08 11:16:58;;;;;;;2.10;1.90;;;;;;;;;;5087578;28;20455;-74
2022/04/08 11:19:25;;;;;;;2.50;1.70;;;;;;;;;;5095643;28;20471;-75
2022/04/08 11:21:52;;;;;;;7.60;4.77;;;;;;;;;;5095540;28;20469;-74
2022/04/08 11:24:19;;;;;;;3.47;2.10;;;;;;;;;;5095188;28;20450;-74
2022/04/08 11:26:48;;;;;;;2.33;1.70;;;;;;;;;;5095408;28;20451;-74
2022/04/08 11:29:16;;;;;;;2.27;1.60;;;;;;;;;;5095169;28;20470;-75
2022/04/08 11:31:44;;;;;;;3.03;2.50;;;;;;;;;;5095420;28;20454;-75
2022/04/08 11:34:13;;;;;;;2.90;2.40;;;;;;;;;;5094932;28;20481;-75
2022/04/08 11:36:40;;;;;;;3.03;2.00;;;;;;;;;;5095282;28;20451;-75
2022/04/08 11:39:07;;;;;;;4.67;2.30;;;;;;;;;;5094771;28;20486;-74
2022/04/08 11:41:35;;;;;;;3.13;2.23;;;;;;;;;;5095313;28;20466;-75
2022/04/08 11:44:04;;;;;;;3.07;1.93;;;;;;;;;;5088184;28;20455;-74
2022/04/08 11:46:31;;;;;;;3.80;2.10;;;;;;;;;;5074725;28;20499;-75
2022/04/08 11:48:58;;;;;;;5.60;2.60;;;;;;;;;;5074195;28;20486;-74
2022/04/08 11:51:25;;;;;;;4.10;2.83;;;;;;;;;;5074781;28;20980;-75
2022/04/08 11:53:54;;;;;;;3.30;2.00;;;;;;;;;;5081441;28;20830;-74
2022/04/08 11:56:22;;;;;;;5.90;2.23;;;;;;;;;;5094673;28;20451;-75
2022/04/08 11:58:56;;;;;;;2.50;2.20;;;;;;;;;;5094535;28;20853;-75
2022/04/08 12:01:25;;;;;;;4.90;2.10;;;;;;;;;;5091785;28;20511;-75
2022/04/08 12:03:52;;;;;;;5.20;2.40;;;;;;;;;;5093064;28;21010;-75
2022/04/08 12:06:20;;;;;;;3.60;2.03;;;;;;;;;;5093397;28;20540;-75
2022/04/08 12:08:48;;;;;;;9.40;2.50;;;;;;;;;;5093320;28;20477;-75
2022/04/08 12:11:15;;;;;;;4.73;2.20;;;;;;;;;;5093216;28;20550;-75
2022/04/08 12:13:43;;;;;;;2.67;1.60;;;;;;;;;;5093013;28;20546;-75
2022/04/08 12:16:11;;;;;;;2.93;1.97;;;;;;;;;;5092617;28;20473;-75
2022/04/08 12:18:48;;;;;;;2.60;2.23;;;;;;;;;;5092858;28;20481;-75
2022/04/08 12:21:15;;;;;;;3.03;1.60;;;;;;;;;;5092944;28;20484;-75
2022/04/08 12:23:42;;;;;;;4.30;1.90;;;;;;;;;;5092530;28;20459;-75
2022/04/08 12:26:11;;;;;;;3.17;2.13;;;;;;;;;;5092779;28;20591;-75
2022/04/08 12:28:38;;;;;;;4.20;2.40;;;;;;;;;;5091435;28;20486;-75
2022/04/08 12:31:12;;;;;;;2.60;1.77;;;;;;;;;;5092560;28;20460;-75
2022/04/08 12:33:41;;;;;;;3.50;1.80;;;;;;;;;;5092718;28;20552;-75
2022/04/08 12:36:10;;;;;;;4.43;2.10;;;;;;;;;;5083099;28;20451;-75
2022/04/08 12:38:38;;;;;;;3.40;2.10;;;;;;;;;;5093699;28;20557;-75
2022/04/08 12:41:05;;;;;;;2.70;2.00;;;;;;;;;;5093924;28;20462;-75
2022/04/08 12:43:32;;;;;;;5.40;2.80;;;;;;;;;;5094132;28;20508;-75
2022/04/08 12:45:59;;;;;;;2.10;1.80;;;;;;;;;;5093751;28;20489;-75
2022/04/08 12:48:27;;;;;;;3.03;1.73;;;;;;;;;;5093965;28;20477;-76
2022/04/08 12:50:56;;;;;;;5.13;2.00;;;;;;;;;;5094035;28;20970;-75
2022/04/08 12:53:23;;;;;;;2.53;2.03;;;;;;;;;;5093484;28;20451;-75
2022/04/08 12:55:50;;;;;;;2.83;1.90;;;;;;;;;;5092739;28;20447;-74
2022/04/08 12:58:17;;;;;;;2.53;1.50;;;;;;;;;;5093611;28;20890;-74
2022/04/08 13:00:46;;;;;;;2.20;1.80;;;;;;;;;;5093902;28;20454;-75
2022/04/08 13:03:13;;;;;;;6.10;2.20;;;;;;;;;;5093885;28;20920;-75
2022/04/08 13:05:41;;;;;;;4.20;1.97;;;;;;;;;;5093488;28;20486;-75
2022/04/08 13:08:09;;;;;;;2.37;1.60;;;;;;;;;;5093787;28;20482;-75
2022/04/08 13:10:37;;;;;;;3.13;2.13;;;;;;;;;;5093616;28;20947;-75
2022/04/08 13:13:04;;;;;;;2.20;1.70;;;;;;;;;;5093632;28;20462;-75
2022/04/08 13:15:31;;;;;;;4.40;1.80;;;;;;;;;;5093259;28;20450;-74
2022/04/08 13:18:01;;;;;;;2.50;1.83;;;;;;;;;;5093396;28;20466;-74
2022/04/08 13:20:28;;;;;;;3.07;1.90;;;;;;;;;;5093547;28;20868;-74
2022/04/08 13:22:55;;;;;;;2.40;1.43;;;;;;;;;;5093138;28;20458;-74
2022/04/08 13:25:24;;;;;;;3.77;1.73;;;;;;;;;;5093069;28;20497;-74
2022/04/08 13:27:53;;;;;;;2.67;1.87;;;;;;;;;;5093465;28;20940;-74
2022/04/08 13:30:21;;;;;;;4.20;1.70;;;;;;;;;;5093462;28;20455;-74
2022/04/08 13:32:48;;;;;;;4.53;2.17;;;;;;;;;;5093206;28;20872;-74
2022/04/08 13:35:15;;;;;;;2.73;1.50;;;;;;;;;;5093060;28;20450;-74
2022/04/08 13:37:42;;;;;;;3.80;1.67;;;;;;;;;;5093032;28;20446;-74
2022/04/08 13:40:10;;;;;;;7.43;1.80;;;;;;;;;;5093356;28;20974;-74
2022/04/08 13:42:39;;;;;;;4.63;1.50;;;;;;;;;;5093139;28;20501;-74
2022/04/08 13:45:06;;;;;;;6.20;1.30;;;;;;;;;;5093138;28;20458;-74
2022/04/08 13:47:33;;;;;;;3.10;1.77;;;;;;;;;;5093179;28;20438;-74
2022/04/08 13:50:00;;;;;;;4.13;1.40;;;;;;;;;;5092934;28;20457;-74
2022/04/08 13:52:30;;;;;;;2.40;1.50;;;;;;;;;;5092947;28;20447;-73
2022/04/08 13:54:57;;;;;;;2.13;1.47;;;;;;;;;;5092639;28;20673;-73
2022/04/08 13:57:24;;;;;;;8.30;1.90;;;;;;;;;;5093121;28;20478;-74
2022/04/08 13:59:52;;;;;;;2.80;1.63;;;;;;;;;;5092868;28;20475;-74
2022/04/08 14:02:20;;;;;;;2.07;1.50;;;;;;;;;;5092890;28;20943;-74
2022/04/08 14:04:47;;;;;;;2.80;1.90;;;;;;;;;;5092811;28;20455;-74
2022/04/08 14:07:14;;;;;;;3.83;1.90;;;;;;;;;;5094730;28;20490;-74
2022/04/08 14:09:41;;;;;;;2.93;1.87;;;;;;;;;;5096926;28;20561;-74
2022/04/08 14:12:09;;;;;;;3.07;1.70;;;;;;;;;;5096997;28;20831;-74
2022/04/08 14:14:36;;;;;;;7.70;5.30;;;;;;;;;;5096717;28;20451;-74
2022/04/08 14:17:05;;;;;;;2.70;2.10;;;;;;;;;;5096651;28;20933;-74
2022/04/08 14:19:32;;;;;;;4.80;3.37;;;;;;;;;;5096966;28;20470;-74
2022/04/08 14:21:59;;;;;;;3.50;2.37;;;;;;;;;;5096667;28;20466;-74
2022/04/08 14:24:26;;;;;;;4.67;2.97;;;;;;;;;;5096726;28;20454;-74
2022/04/08 14:26:53;;;;;;;7.13;5.60;;;;;;;;;;5096449;28;20485;-73
2022/04/08 14:29:20;;;;;;;3.60;3.07;;;;;;;;;;5096494;28;20471;-73
2022/04/08 14:31:48;;;;;;;3.63;2.17;;;;;;;;;;5096562;28;20951;-74
2022/04/08 14:34:16;;;;;;;4.80;2.40;;;;;;;;;;5096406;28;20451;-74
2022/04/08 14:36:43;;;;;;;4.37;2.17;;;;;;;;;;5096480;28;20443;-74
2022/04/08 14:39:10;;;;;;;3.20;2.07;;;;;;;;;;5096435;28;20477;-74
2022/04/08 14:41:38;;;;;;;4.03;2.77;;;;;;;;;;5096490;28;20439;-74
2022/04/08 14:44:06;;;;;;;3.07;1.97;;;;;;;;;;5096086;28;20519;-73